D50

Crosby Municipal Airport

Crosby, North Dakota, USA
METAR KD50 221435Z AUTO 09015G21KT 9SM FEW110 07/07 A2999 RMK AO2
Observed Flight Rules
Sep-22 @ 14:35 UTC (25 minutes ago) Visual Flight Rules
Wind Visibility Clouds
90° at 15 knots
 Gusting to 21 knots
9 miles
Temperatures Readings
Current 7°C / 45°F
Dewpoint 7°C / 45°F
Humidity 100%
Altimeter 29.99" Hg
Pressure 1016 hPa
Elevation 595
METAR KD50 221435Z AUTO 09015G21KT 9SM FEW110 07/07 A2999 RMK AO2
Observed Flight Rules
Sep-22 @ 14:35 UTC
(25 minutes ago)
VFR
Wind Visibility
90° at 15 knots
 Gusting to 21 knots
9 miles
Clouds
Temperature Dewpoint
7°C / 45°F 7°C / 45°F
Humidity Altimeter Pressure
100% 29.99" Hg 1016 hPa